createdAt,value
2018-03-21T00:00:11.868Z,55.20
2018-03-21T00:02:13.216Z,55.50
2018-03-21T00:04:14.193Z,55.50
2018-03-21T00:06:15.152Z,55.30
2018-03-21T00:08:16.485Z,55.30
2018-03-21T00:10:17.438Z,55.30
2018-03-21T00:12:18.379Z,55.10
2018-03-21T00:14:19.357Z,54.80
2018-03-21T00:16:20.313Z,54.80
2018-03-21T00:18:21.280Z,54.90
2018-03-21T00:20:22.275Z,55.00
2018-03-21T00:22:23.222Z,54.80
2018-03-21T00:24:24.199Z,54.50
2018-03-21T00:26:25.399Z,54.40
2018-03-21T00:28:26.352Z,54.30
2018-03-21T00:30:27.309Z,54.30
2018-03-21T00:32:28.650Z,55.30
2018-03-21T00:34:29.973Z,56.40
2018-03-21T00:36:30.937Z,56.40
2018-03-21T00:38:31.888Z,57.00
2018-03-21T00:40:32.856Z,57.50
2018-03-21T00:42:33.809Z,57.20
2018-03-21T00:44:34.768Z,57.10
2018-03-21T00:46:35.744Z,57.20
2018-03-21T00:48:36.701Z,56.90
2018-03-21T00:50:37.661Z,57.20
2018-03-21T00:52:39.012Z,57.60
2018-03-21T00:54:40.333Z,57.20
2018-03-21T00:56:41.291Z,57.20
2018-03-21T00:58:42.240Z,57.00
2018-03-21T01:00:43.201Z,56.90
2018-03-21T01:02:44.149Z,57.10
2018-03-21T01:04:45.216Z,57.30
2018-03-21T01:06:46.552Z,58.50
2018-03-21T01:08:47.508Z,58.50
2018-03-21T01:10:48.837Z,59.00
2018-03-21T01:12:50.170Z,59.20
2018-03-21T01:14:51.132Z,59.20
2018-03-21T01:16:52.096Z,59.40
2018-03-21T01:18:53.055Z,59.80
2018-03-21T01:20:54.021Z,60.80
2018-03-21T01:22:55.370Z,61.80
2018-03-21T01:24:57.092Z,62.50
2018-03-21T01:26:58.040Z,62.50
2018-03-21T01:28:59.365Z,63.30
2018-03-21T01:31:00.311Z,63.30
2018-03-21T01:33:01.261Z,63.80
2018-03-21T01:35:02.641Z,64.10
2018-03-21T01:37:03.599Z,64.10
2018-03-21T01:39:04.748Z,64.20
2018-03-21T01:41:05.707Z,64.60
2018-03-21T01:43:07.066Z,64.30
2018-03-21T01:45:08.028Z,64.30
2018-03-21T01:47:08.992Z,63.90
2018-03-21T01:49:09.963Z,63.40
2018-03-21T01:51:11.301Z,63.10
2018-03-21T01:53:12.649Z,62.50
2018-03-21T01:55:13.976Z,63.10
2018-03-21T01:57:14.926Z,63.10
2018-03-21T01:59:15.897Z,63.40
2018-03-21T02:01:16.857Z,63.70
2018-03-21T02:03:17.808Z,63.80
2018-03-21T02:05:18.772Z,64.40
2018-03-21T02:07:19.738Z,65.50
2018-03-21T02:09:20.708Z,66.00
2018-03-21T02:11:21.668Z,66.30
2018-03-21T02:13:22.637Z,66.60
2018-03-21T02:15:23.608Z,66.80
2018-03-21T02:17:24.589Z,66.90
2018-03-21T02:19:25.536Z,66.90
2018-03-21T02:21:28.070Z,66.90
2018-03-21T02:23:29.402Z,66.70
2018-03-21T02:25:30.357Z,66.70
2018-03-21T02:27:31.332Z,66.70
2018-03-21T02:29:32.293Z,67.00
2018-03-21T02:31:33.260Z,67.30
2018-03-21T02:33:34.225Z,67.50
2018-03-21T02:35:35.216Z,67.90
2018-03-21T02:37:36.549Z,68.70
2018-03-21T02:39:37.516Z,68.70
2018-03-21T02:41:38.527Z,69.00
2018-03-21T02:43:39.848Z,69.00
2018-03-21T02:45:40.824Z,69.00
2018-03-21T02:47:41.783Z,68.90
2018-03-21T02:49:42.740Z,68.90
2018-03-21T02:51:43.698Z,68.90
2018-03-21T02:53:45.064Z,69.10
2018-03-21T02:55:46.408Z,69.50
2018-03-21T02:57:47.405Z,69.50
2018-03-21T02:59:48.365Z,70.50
2018-03-21T03:01:49.685Z,72.20
2018-03-21T03:03:50.639Z,72.20
2018-03-21T03:05:52.344Z,72.50
2018-03-21T03:07:53.292Z,72.50
2018-03-21T03:09:54.270Z,72.90
2018-03-21T03:11:55.592Z,72.60
2018-03-21T03:13:56.542Z,72.60
2018-03-21T03:15:57.890Z,72.70
2018-03-21T03:17:59.208Z,73.20
2018-03-21T03:20:00.168Z,73.20
2018-03-21T03:22:01.116Z,73.30
2018-03-21T03:24:02.099Z,73.60
2018-03-21T03:26:03.065Z,74.30
2018-03-21T03:28:04.401Z,75.10
2018-03-21T03:30:05.802Z,75.60
2018-03-21T03:32:06.757Z,75.60
2018-03-21T03:34:07.712Z,75.70
2018-03-21T03:36:09.055Z,76.50
2018-03-21T03:38:10.013Z,76.50
2018-03-21T03:40:10.971Z,76.20
2018-03-21T03:42:11.930Z,75.00
2018-03-21T03:44:12.918Z,74.40
2018-03-21T03:46:13.876Z,74.40
2018-03-21T03:48:14.845Z,74.40
2018-03-21T03:50:16.180Z,74.70
2018-03-21T03:52:17.131Z,75.10
2018-03-21T03:54:18.088Z,75.40
2018-03-21T03:56:19.057Z,75.40
2018-03-21T03:58:20.012Z,75.70
2018-03-21T04:00:20.974Z,75.80
2018-03-21T04:02:21.925Z,76.30
2018-03-21T04:04:23.280Z,76.30
2018-03-21T04:06:24.231Z,76.30
2018-03-21T04:08:25.187Z,76.30
2018-03-21T04:10:26.147Z,76.50
2018-03-21T04:12:27.113Z,76.70
2018-03-21T04:14:28.084Z,77.00
2018-03-21T04:16:29.041Z,77.20
2018-03-21T04:18:30.007Z,77.40
2018-03-21T04:20:31.360Z,76.80
2018-03-21T04:22:32.320Z,76.80
2018-03-21T04:24:33.302Z,75.90
2018-03-21T04:26:34.262Z,74.90
2018-03-21T04:28:35.217Z,75.10
2018-03-21T04:30:36.189Z,74.50
2018-03-21T04:32:37.435Z,74.20
2018-03-21T04:34:38.423Z,74.20
2018-03-21T04:36:39.365Z,74.40
2018-03-21T04:38:40.336Z,74.90
2018-03-21T04:40:41.308Z,75.10
2018-03-21T04:42:42.272Z,75.70
2018-03-21T04:44:43.644Z,76.30
2018-03-21T04:46:44.604Z,76.90
2018-03-21T04:48:45.944Z,77.10
2018-03-21T04:50:47.294Z,77.40
2018-03-21T04:52:48.631Z,77.80
2018-03-21T04:54:49.974Z,78.10
2018-03-21T04:56:51.305Z,78.10
2018-03-21T04:58:52.372Z,78.10
2018-03-21T05:00:53.334Z,78.20
2018-03-21T05:02:54.298Z,78.20
2018-03-21T05:04:55.294Z,78.00
2018-03-21T05:06:56.271Z,77.90
2018-03-21T05:08:57.280Z,78.00
2018-03-21T05:10:58.252Z,77.90
2018-03-21T05:12:59.215Z,78.20
2018-03-21T05:15:00.557Z,78.10
2018-03-21T05:17:01.993Z,78.30
2018-03-21T05:19:03.317Z,78.40
2018-03-21T05:21:04.276Z,78.40
2018-03-21T05:23:05.613Z,78.50
2018-03-21T05:25:06.943Z,79.00
2018-03-21T05:27:07.892Z,79.00
2018-03-21T05:29:09.697Z,78.20
2018-03-21T05:31:10.647Z,78.20
2018-03-21T05:33:11.604Z,77.40
2018-03-21T05:35:12.973Z,76.90
2018-03-21T05:37:13.936Z,76.90
2018-03-21T05:39:14.881Z,77.40
2018-03-21T05:41:15.903Z,78.30
2018-03-21T05:43:17.202Z,79.10
2018-03-21T05:45:18.520Z,79.40
2018-03-21T05:47:19.472Z,79.40
2018-03-21T05:49:21.243Z,79.50
2018-03-21T05:51:22.196Z,79.90
2018-03-21T05:53:23.157Z,80.10
2018-03-21T05:55:24.224Z,79.90
2018-03-21T05:57:25.174Z,79.70
2018-03-21T05:59:26.144Z,79.60
2018-03-21T06:01:27.109Z,79.60
2018-03-21T06:03:28.068Z,79.80
2018-03-21T06:05:29.404Z,80.30
2018-03-21T06:07:30.395Z,80.30
2018-03-21T06:09:31.339Z,80.30
2018-03-21T06:11:32.311Z,80.80
2018-03-21T06:13:33.636Z,81.40
2018-03-21T06:15:34.600Z,81.40
2018-03-21T06:17:35.931Z,81.10
2018-03-21T06:19:37.272Z,81.10
2018-03-21T06:21:38.602Z,81.00
2018-03-21T06:23:39.598Z,81.00
2018-03-21T06:25:40.563Z,80.80
2018-03-21T06:27:41.520Z,80.80
2018-03-21T06:29:43.143Z,81.00
2018-03-21T06:31:44.112Z,81.00
2018-03-21T06:33:45.441Z,80.20
2018-03-21T06:35:46.419Z,80.20
2018-03-21T06:37:47.360Z,79.60
2018-03-21T06:39:48.315Z,79.40
2018-03-21T06:41:49.278Z,79.30
2018-03-21T06:43:50.228Z,79.10
2018-03-21T06:45:51.575Z,78.20
2018-03-21T06:47:52.932Z,77.80
2018-03-21T06:49:53.888Z,77.80
2018-03-21T06:51:54.840Z,77.50
2018-03-21T06:53:55.816Z,77.60
2018-03-21T06:55:57.145Z,78.40
2018-03-21T06:57:58.093Z,78.40
2018-03-21T06:59:59.437Z,78.50
2018-03-21T07:02:00.762Z,78.40
2018-03-21T07:04:01.741Z,78.40
2018-03-21T07:06:03.032Z,78.10
2018-03-21T07:08:03.993Z,78.20
2018-03-21T07:10:05.488Z,77.80
2018-03-21T07:12:06.475Z,77.90
2018-03-21T07:14:20.293Z,78.70
2018-03-21T07:16:33.689Z,78.70
2018-03-21T07:18:34.708Z,79.00
2018-03-21T07:20:35.660Z,79.30
2018-03-21T07:22:36.624Z,78.30
2018-03-21T07:24:38.267Z,77.50
2018-03-21T07:26:39.221Z,77.50
2018-03-21T07:28:40.559Z,76.40
2018-03-21T07:30:41.912Z,76.10
2018-03-21T07:32:43.252Z,75.30
2018-03-21T07:34:44.580Z,74.20
2018-03-21T07:36:45.535Z,74.20
2018-03-21T07:38:46.513Z,73.60
2018-03-21T07:40:47.464Z,73.40
2018-03-21T07:42:48.411Z,74.40
2018-03-21T07:44:49.384Z,75.20
2018-03-21T07:46:50.363Z,72.10
2018-03-21T07:48:51.328Z,70.40
2018-03-21T07:50:52.300Z,69.80
2018-03-21T07:52:53.261Z,70.30
2018-03-21T07:54:54.216Z,71.10
2018-03-21T07:56:55.174Z,70.70
2018-03-21T07:58:56.500Z,68.30
2018-03-21T08:00:57.460Z,68.30
2018-03-21T08:02:58.412Z,68.10
2018-03-21T08:04:59.367Z,70.30
2018-03-21T08:07:00.335Z,70.10
2018-03-21T08:09:02.108Z,68.00
2018-03-21T08:11:03.433Z,64.60
2018-03-21T08:13:06.979Z,64.70
2018-03-21T12:08:46.995Z,74.60
2018-03-21T12:10:48.335Z,73.20
2018-03-21T12:12:49.295Z,73.20
2018-03-21T12:14:50.276Z,73.90
2018-03-21T12:16:51.614Z,73.60
2018-03-21T12:18:52.952Z,73.80
2018-03-21T12:20:54.459Z,75.20
2018-03-21T12:22:55.407Z,75.20
2018-03-21T12:24:56.377Z,76.00
2018-03-21T12:26:57.836Z,75.70
2018-03-21T12:28:58.828Z,75.70
2018-03-21T12:30:59.917Z,75.50
2018-03-21T12:33:00.930Z,74.60
2018-03-21T12:35:02.381Z,74.40
2018-03-21T12:39:36.797Z,73.80
2018-03-21T12:41:38.138Z,73.60
2018-03-21T12:43:39.770Z,74.80
2018-03-21T12:45:41.258Z,75.40
2018-03-21T12:47:43.344Z,75.40
2018-03-21T12:49:44.514Z,75.40
2018-03-21T12:51:47.344Z,75.30
2018-03-21T12:53:50.186Z,75.40
2018-03-21T12:55:52.224Z,74.30
2018-03-21T12:57:53.346Z,74.40
2018-03-21T12:59:55.120Z,73.40
2018-03-21T13:02:11.086Z,73.30
2018-03-21T13:04:12.268Z,72.90
2018-03-21T13:06:13.447Z,73.20
2018-03-21T13:08:14.631Z,73.60
2018-03-21T13:10:17.133Z,74.80
2018-03-21T13:12:18.297Z,74.80
2018-03-21T13:14:20.105Z,75.20
2018-03-21T13:16:21.345Z,75.10
2018-03-21T13:40:54.312Z,75.10
2018-03-21T15:33:12.192Z,83.40
2018-03-21T15:35:13.253Z,82.10
2018-03-21T15:37:14.258Z,79.60
2018-03-21T15:39:15.938Z,77.60
2018-03-21T15:41:17.351Z,77.00
2018-03-21T15:43:18.504Z,77.00
2018-03-21T15:45:19.617Z,77.80
2018-03-21T15:47:20.750Z,77.80
2018-03-21T15:49:21.841Z,78.90
2018-03-21T15:51:26.399Z,79.00
2018-03-21T15:53:27.400Z,79.40
2018-03-21T15:55:28.574Z,78.90
2018-03-21T15:57:29.561Z,77.60
2018-03-21T15:59:30.640Z,76.40
2018-03-21T16:01:38.982Z,78.30
2018-03-21T16:03:44.095Z,78.40
2018-03-21T16:05:45.313Z,78.20
2018-03-21T16:07:46.444Z,77.60
2018-03-21T16:09:47.917Z,75.20
2018-03-21T16:11:49.508Z,75.20
2018-03-21T16:13:51.897Z,75.00
2018-03-21T16:15:53.092Z,75.00
2018-03-21T16:18:03.669Z,76.40
2018-03-21T16:20:04.773Z,76.40
2018-03-21T16:22:05.998Z,76.50
2018-03-21T16:24:07.070Z,75.00
2018-03-21T16:26:08.358Z,75.00
2018-03-21T16:28:09.525Z,75.10
2018-03-21T16:30:10.861Z,75.80
2018-03-21T16:32:11.929Z,75.90
2018-03-21T16:49:42.276Z,76.30
2018-03-21T16:51:52.282Z,75.70
2018-03-21T17:12:10.819Z,76.20
2018-03-21T17:16:31.440Z,76.40
2018-03-21T17:18:34.039Z,76.80
2018-03-21T17:20:36.302Z,75.90
2018-03-21T17:35:29.320Z,77.00
2018-03-21T17:39:48.697Z,77.50
2018-03-21T17:41:50.171Z,77.20
2018-03-21T17:43:51.413Z,77.30
2018-03-21T17:45:53.011Z,77.30
2018-03-21T17:47:54.130Z,77.30
2018-03-21T17:49:55.528Z,77.00
2018-03-21T17:52:06.157Z,76.70
2018-03-21T17:54:08.582Z,76.70
2018-03-21T17:56:14.119Z,76.90
2018-03-21T17:58:19.536Z,76.90
2018-03-21T18:00:20.733Z,76.60
2018-03-21T18:02:24.216Z,76.90
2018-03-21T18:04:30.412Z,77.40
2018-03-21T18:06:36.819Z,77.20
2018-03-21T18:08:37.999Z,77.50
2018-03-21T18:10:40.204Z,77.80
2018-03-21T18:12:41.315Z,78.10
2018-03-21T18:14:42.345Z,78.60
2018-03-21T18:16:43.369Z,78.30
2018-03-21T18:18:44.441Z,78.50
2018-03-21T18:20:45.722Z,78.60
2018-03-21T18:22:46.914Z,78.60
2018-03-21T18:24:48.079Z,78.70
2018-03-21T18:26:49.201Z,78.90
2018-03-21T18:28:50.239Z,79.10
2018-03-21T18:30:51.305Z,79.10
2018-03-21T18:32:52.743Z,79.40
2018-03-21T18:34:54.270Z,79.80
2018-03-21T18:36:57.097Z,79.80
2018-03-21T18:38:58.341Z,80.10
2018-03-21T18:41:00.487Z,80.10
2018-03-21T18:43:01.572Z,80.40
2018-03-21T18:45:02.654Z,80.50
2018-03-21T18:47:04.070Z,81.00
2018-03-21T18:49:05.246Z,81.00
2018-03-21T18:51:08.241Z,81.20
2018-03-21T18:53:11.073Z,81.40
2018-03-21T18:55:13.774Z,81.60
2018-03-21T18:57:20.298Z,81.80
2018-03-21T18:59:22.862Z,81.80
2018-03-21T19:01:27.394Z,82.00
2018-03-21T19:03:28.533Z,82.20
2018-03-21T19:05:34.509Z,82.40
2018-03-21T19:07:36.099Z,82.30
2018-03-21T19:09:40.067Z,82.30
2018-03-21T19:11:43.276Z,82.20
2018-03-21T19:13:52.741Z,82.20
2018-03-21T19:15:55.073Z,82.40
2018-03-21T19:17:58.013Z,82.50
2018-03-21T19:20:01.349Z,82.50
2018-03-21T19:22:14.097Z,82.60
2018-03-21T19:24:22.074Z,82.70
2018-03-21T19:26:27.607Z,82.80
2018-03-21T19:28:28.817Z,83.10
2018-03-21T19:30:32.136Z,83.20
2018-03-21T19:32:34.074Z,83.10
2018-03-21T19:40:05.220Z,83.30
2018-03-21T19:42:07.769Z,83.30
2018-03-21T19:44:08.763Z,83.10
2018-03-21T19:46:11.159Z,83.10
2018-03-21T19:48:12.402Z,83.00
2018-03-21T19:50:13.446Z,82.80
2018-03-21T19:52:14.619Z,83.20
2018-03-21T19:54:15.783Z,83.30
2018-03-21T19:56:16.843Z,83.30
2018-03-21T19:58:17.971Z,83.60
2018-03-21T20:00:19.091Z,83.70
2018-03-21T20:02:20.398Z,83.60
2018-03-21T20:04:21.948Z,83.50
2018-03-21T20:06:24.209Z,83.70
2018-03-21T20:08:26.058Z,83.70
2018-03-21T20:10:28.701Z,83.70
2018-03-21T20:12:31.498Z,83.90
2018-03-21T20:14:32.641Z,83.90
2018-03-21T20:16:33.704Z,83.80
2018-03-21T20:18:35.153Z,83.90
2018-03-21T20:20:38.037Z,83.90
2018-03-21T20:33:00.770Z,83.70
2018-03-21T20:35:03.185Z,83.90
2018-03-21T20:37:04.651Z,84.10
2018-03-21T20:39:06.427Z,84.30
2018-03-21T20:41:08.842Z,84.30
2018-03-21T20:43:11.257Z,84.20
2018-03-21T20:45:12.486Z,84.00
2018-03-21T20:47:13.673Z,84.20
2018-03-21T20:49:14.931Z,84.40
2018-03-21T20:51:17.980Z,84.40
2018-03-21T20:53:19.094Z,84.30
2018-03-21T20:55:20.965Z,84.50
2018-03-21T20:57:22.085Z,84.60
2018-03-21T20:59:23.684Z,85.00
2018-03-21T21:01:36.702Z,85.30
2018-03-21T21:03:41.333Z,85.50
2018-03-21T21:05:49.375Z,85.50
2018-03-21T21:10:00.213Z,85.50
2018-03-21T21:12:02.538Z,85.50
2018-03-21T21:14:04.262Z,85.60
2018-03-21T21:16:08.212Z,85.50
2018-03-21T21:18:12.965Z,85.50
2018-03-21T21:20:14.764Z,85.50
2018-03-21T21:22:16.827Z,85.90
2018-03-21T21:24:19.213Z,85.30
2018-03-21T21:26:20.472Z,85.30
2018-03-21T21:28:21.660Z,85.40
2018-03-21T21:30:23.675Z,85.30
2018-03-21T21:32:25.877Z,85.60
2018-03-21T21:34:30.722Z,85.40
